Time;durP1;ratioP1;P1;durP2;ratioP2;P2;SDS_P1;SDS_P2;PMS_P1;PMS_P2;Temp;Humidity;BMP_temperature;BMP_pressure;BME280_temperature;BME280_humidity;BME280_pressure;Samples;Min_cycle;Max_cycle;Signal;HPM_P1;HPM_P2
2023/03/11 00:00:28;;;;;;;3.08;1.30;;;1.20;99.90;;;;;;5118068;28;20266;-85
2023/03/11 00:02:57;;;;;;;9.27;1.92;;;1.20;99.90;;;;;;5099547;28;20272;-85
2023/03/11 00:05:29;;;;;;;12.63;2.33;;;1.20;99.90;;;;;;5118872;28;20232;-85
2023/03/11 00:07:55;;;;;;;14.57;2.42;;;1.20;99.90;;;;;;5117418;28;20206;-85
2023/03/11 00:10:27;;;;;;;6.10;1.80;;;1.20;99.90;;;;;;5118040;28;20572;-82
2023/03/11 00:12:53;;;;;;;3.00;1.45;;;1.20;99.90;;;;;;5099282;28;20184;-85
2023/03/11 00:15:19;;;;;;;5.37;1.60;;;1.20;99.90;;;;;;5098706;28;20178;-85
2023/03/11 00:17:47;;;;;;;12.63;1.88;;;1.20;99.90;;;;;;5091918;28;20196;-85
2023/03/11 00:20:18;;;;;;;4.18;1.50;;;1.30;99.90;;;;;;5099395;28;20186;-84
2023/03/11 00:22:44;;;;;;;3.47;1.17;;;1.30;99.90;;;;;;5099400;28;20183;-84
2023/03/11 00:25:11;;;;;;;5.93;1.77;;;1.30;99.90;;;;;;5099702;28;20293;-84
2023/03/11 00:27:37;;;;;;;3.55;1.40;;;1.30;99.90;;;;;;5118792;28;20188;-84
2023/03/11 00:30:04;;;;;;;10.00;3.50;;;1.30;99.90;;;;;;5118337;28;20176;-85
2023/03/11 00:32:29;;;;;;;6.40;2.05;;;1.30;99.90;;;;;;5104778;28;20421;-85
2023/03/11 00:34:55;;;;;;;4.63;1.50;;;1.30;99.90;;;;;;5128646;28;20183;-84
2023/03/11 00:37:21;;;;;;;4.90;1.30;;;1.30;99.90;;;;;;5108926;28;20183;-84
2023/03/11 00:39:46;;;;;;;5.50;1.30;;;1.30;99.90;;;;;;5114862;28;20569;-85
2023/03/11 00:42:12;;;;;;;6.67;1.70;;;1.30;99.90;;;;;;5096337;28;20192;-83
2023/03/11 00:44:38;;;;;;;2.57;1.50;;;1.30;99.90;;;;;;5116216;28;20203;-83
2023/03/11 00:47:03;;;;;;;4.63;2.40;;;1.40;99.90;;;;;;5116939;28;20248;-83
2023/03/11 00:49:29;;;;;;;2.50;1.13;;;1.40;99.90;;;;;;5117296;28;20186;-82
2023/03/11 00:51:54;;;;;;;10.60;2.50;;;1.30;99.90;;;;;;5121235;28;20282;-85
2023/03/11 00:54:20;;;;;;;4.73;1.73;;;1.30;99.90;;;;;;5110386;28;20182;-82
2023/03/11 00:56:46;;;;;;;5.90;1.80;;;1.30;99.90;;;;;;5129022;28;20260;-82
2023/03/11 00:59:11;;;;;;;4.23;1.70;;;1.30;99.90;;;;;;5128662;28;20180;-85
2023/03/11 01:01:37;;;;;;;21.13;2.97;;;1.30;99.90;;;;;;5119251;28;20209;-85
2023/03/11 01:04:02;;;;;;;7.80;1.67;;;1.30;99.90;;;;;;5064327;28;20192;-85
2023/03/11 01:06:28;;;;;;;5.03;1.30;;;1.30;99.90;;;;;;5081090;28;20621;-85
2023/03/11 01:08:53;;;;;;;4.57;1.70;;;1.20;99.90;;;;;;5116281;28;20187;-82
2023/03/11 01:11:19;;;;;;;5.20;1.60;;;1.20;99.90;;;;;;5116131;28;20186;-84
2023/03/11 01:13:45;;;;;;;4.17;1.93;;;1.20;99.90;;;;;;5116696;28;20594;-84
2023/03/11 01:16:10;;;;;;;3.00;1.90;;;1.20;99.90;;;;;;5098058;28;20240;-82
2023/03/11 01:18:36;;;;;;;6.97;2.10;;;1.20;99.90;;;;;;5097799;28;20526;-85
2023/03/11 01:21:02;;;;;;;3.80;1.53;;;1.20;99.90;;;;;;5116290;28;20180;-82
2023/03/11 01:23:27;;;;;;;10.97;2.37;;;1.20;99.90;;;;;;5116534;28;20172;-82
2023/03/11 01:25:53;;;;;;;5.43;2.13;;;1.20;99.90;;;;;;5082129;28;20211;-82
2023/03/11 01:28:19;;;;;;;6.37;1.63;;;1.20;99.90;;;;;;5119608;28;20405;-83
2023/03/11 01:30:44;;;;;;;3.90;1.73;;;1.20;99.90;;;;;;5100957;28;20835;-83
2023/03/11 01:33:15;;;;;;;2.60;1.33;;;1.20;99.90;;;;;;5118849;28;20187;-83
2023/03/11 01:35:42;;;;;;;3.75;1.52;;;1.20;99.90;;;;;;5120184;28;20187;-83
2023/03/11 01:38:08;;;;;;;5.20;1.50;;;1.20;99.90;;;;;;5119850;28;20184;-82
2023/03/11 01:40:36;;;;;;;3.75;1.45;;;1.20;99.90;;;;;;5121025;27;20692;-83
2023/03/11 01:43:03;;;;;;;6.93;2.13;;;1.20;99.90;;;;;;5118824;28;20182;-85
2023/03/11 01:45:58;;;;;;;4.90;1.58;;;1.10;99.90;;;;;;5117045;28;20674;-86
2023/03/11 01:48:23;;;;;;;4.05;1.58;;;1.10;99.90;;;;;;5097729;28;20175;-86
2023/03/11 01:50:49;;;;;;;7.43;1.37;;;1.00;99.90;;;;;;5097821;28;20211;-86
2023/03/11 01:53:16;;;;;;;4.78;1.17;;;1.00;99.90;;;;;;5097043;28;20207;-86
2023/03/11 01:55:43;;;;;;;8.00;1.35;;;1.00;99.90;;;;;;5115760;28;20183;-87
2023/03/11 01:58:15;;;;;;;4.93;1.88;;;0.90;99.90;;;;;;5097433;28;20171;-84
2023/03/11 02:00:41;;;;;;;15.35;1.85;;;0.90;99.90;;;;;;5115868;28;20199;-84
2023/03/11 02:03:17;;;;;;;8.38;1.52;;;0.80;99.90;;;;;;5115417;28;20201;-87
2023/03/11 02:05:43;;;;;;;4.75;2.60;;;0.70;99.90;;;;;;5078234;28;20737;-87
2023/03/11 02:08:09;;;;;;;5.53;1.80;;;0.70;99.90;;;;;;5074926;28;20206;-86
2023/03/11 02:10:37;;;;;;;4.77;1.70;;;0.60;99.90;;;;;;5057776;28;20679;-86
2023/03/11 02:13:03;;;;;;;3.97;1.67;;;0.60;99.90;;;;;;5073719;28;20181;-86
2023/03/11 02:15:29;;;;;;;3.53;1.53;;;0.60;99.90;;;;;;5074168;28;20181;-86
2023/03/11 02:17:55;;;;;;;5.73;1.93;;;0.50;99.90;;;;;;5073907;28;20430;-86
2023/03/11 02:20:42;;;;;;;8.90;1.65;;;0.50;99.90;;;;;;5075432;28;20494;-86
2023/03/11 02:23:08;;;;;;;6.10;1.80;;;0.50;99.90;;;;;;5075112;28;20163;-86
2023/03/11 02:25:49;;;;;;;6.40;1.60;;;0.50;99.90;;;;;;5075160;28;20311;-86
2023/03/11 02:28:17;;;;;;;4.72;1.75;;;0.50;99.90;;;;;;5074871;28;20264;-86
2023/03/11 02:30:43;;;;;;;6.32;1.73;;;0.50;99.90;;;;;;5073861;28;20177;-86
2023/03/11 02:33:11;;;;;;;6.65;2.05;;;0.50;99.90;;;;;;5073445;28;20263;-86
2023/03/11 02:35:37;;;;;;;4.78;1.90;;;0.50;99.90;;;;;;5073223;28;20197;-86
2023/03/11 02:38:02;;;;;;;10.93;1.47;;;0.50;99.90;;;;;;5074669;28;20204;-87
2023/03/11 02:40:49;;;;;;;2.83;1.30;;;0.50;99.90;;;;;;5057277;28;20531;-86
2023/03/11 02:43:20;;;;;;;3.47;1.50;;;0.50;99.90;;;;;;5074616;28;20263;-86
2023/03/11 02:45:48;;;;;;;5.13;1.63;;;0.40;99.90;;;;;;5073756;28;20213;-86
2023/03/11 02:48:15;;;;;;;8.52;1.70;;;0.40;99.90;;;;;;5074667;28;20191;-86
2023/03/11 02:50:42;;;;;;;4.82;1.30;;;0.40;99.90;;;;;;5073446;28;20200;-86
2023/03/11 02:53:08;;;;;;;2.75;1.45;;;0.40;99.90;;;;;;5074827;28;20173;-86
2023/03/11 02:55:35;;;;;;;6.65;1.10;;;0.30;99.90;;;;;;5076661;28;20224;-84
2023/03/11 02:58:01;;;;;;;11.82;1.73;;;0.30;99.90;;;;;;5078301;28;20177;-86
2023/03/11 03:00:26;;;;;;;12.33;1.40;;;0.20;99.90;;;;;;5078116;28;20176;-84
2023/03/11 03:02:52;;;;;;;8.63;2.03;;;0.20;99.90;;;;;;5060636;28;20513;-86
2023/03/11 03:05:20;;;;;;;6.00;1.48;;;0.20;99.90;;;;;;5103082;28;20231;-86
2023/03/11 03:07:47;;;;;;;8.60;1.40;;;0.20;99.90;;;;;;5118673;28;20206;-86
2023/03/11 03:10:14;;;;;;;8.02;1.70;;;0.20;99.90;;;;;;5118502;28;20182;-85
2023/03/11 03:12:40;;;;;;;10.73;1.63;;;0.30;99.90;;;;;;5100474;28;20167;-86
2023/03/11 03:15:06;;;;;;;7.93;1.85;;;0.30;99.90;;;;;;5118263;28;20228;-85
2023/03/11 03:17:32;;;;;;;10.85;1.48;;;0.20;99.90;;;;;;5083153;28;20184;-86
2023/03/11 03:19:57;;;;;;;8.13;1.30;;;0.20;99.90;;;;;;5100255;28;20210;-85
2023/03/11 03:22:26;;;;;;;10.30;1.70;;;0.20;99.90;;;;;;5118221;28;20357;-83
2023/03/11 03:24:52;;;;;;;7.97;1.42;;;0.10;99.90;;;;;;5118424;28;20556;-86
2023/03/11 03:27:18;;;;;;;8.55;1.95;;;0.10;99.90;;;;;;5118561;28;20175;-83
2023/03/11 03:29:43;;;;;;;6.27;1.63;;;0.10;99.90;;;;;;5119291;28;20186;-86
2023/03/11 03:32:09;;;;;;;4.00;1.80;;;0.10;99.90;;;;;;5118705;28;20437;-83
2023/03/11 03:34:34;;;;;;;4.07;1.57;;;0.10;99.90;;;;;;5100709;28;20183;-83
2023/03/11 03:37:00;;;;;;;4.90;1.93;;;0.00;99.90;;;;;;5118814;28;20236;-83
2023/03/11 03:39:26;;;;;;;9.80;2.07;;;-0.10;99.90;;;;;;5100661;28;20175;-86
2023/03/11 03:41:51;;;;;;;5.70;1.50;;;-0.10;99.90;;;;;;5118280;28;20180;-86
2023/03/11 03:44:17;;;;;;;2.30;1.30;;;-0.10;99.90;;;;;;5118006;28;20175;-85
2023/03/11 03:46:42;;;;;;;3.20;1.40;;;-0.10;99.90;;;;;;5100382;28;20180;-86
2023/03/11 03:49:08;;;;;;;10.07;3.60;;;-0.10;99.90;;;;;;5118010;28;20627;-86
2023/03/11 03:51:33;;;;;;;3.70;1.70;;;-0.20;99.90;;;;;;5118392;28;20184;-85
2023/03/11 03:53:59;;;;;;;8.33;1.57;;;-0.20;99.90;;;;;;5118154;28;20643;-86
2023/03/11 03:56:25;;;;;;;5.87;1.63;;;-0.30;99.90;;;;;;5099753;28;20240;-86
2023/03/11 03:58:50;;;;;;;4.57;1.43;;;-0.40;99.90;;;;;;5100054;28;20172;-86
2023/03/11 04:01:16;;;;;;;5.47;1.60;;;-0.50;99.90;;;;;;5099640;28;20631;-86
2023/03/11 04:03:41;;;;;;;9.53;1.73;;;-0.50;99.90;;;;;;5117630;28;20253;-86
2023/03/11 04:06:20;;;;;;;4.23;1.93;;;-0.60;99.90;;;;;;5098899;28;20652;-85
2023/03/11 04:08:45;;;;;;;7.65;1.88;;;-0.70;99.90;;;;;;5118502;28;20168;-85
2023/03/11 04:11:12;;;;;;;8.00;2.50;;;-0.80;99.90;;;;;;5082907;28;20173;-85
2023/03/11 04:13:37;;;;;;;4.10;1.40;;;-0.80;99.90;;;;;;5099767;28;20466;-84
2023/03/11 04:16:05;;;;;;;8.37;1.80;;;-0.90;99.90;;;;;;5117417;28;20189;-85
2023/03/11 04:18:31;;;;;;;6.63;1.52;;;-0.90;99.90;;;;;;5117352;28;20221;-85
2023/03/11 04:20:57;;;;;;;5.70;1.87;;;-1.00;99.90;;;;;;5117351;28;20567;-85
2023/03/11 04:23:23;;;;;;;5.23;2.07;;;-1.00;99.90;;;;;;5117396;28;20406;-85
2023/03/11 04:25:48;;;;;;;7.93;1.60;;;-1.00;99.90;;;;;;5099045;28;20246;-85
2023/03/11 04:28:14;;;;;;;6.37;1.80;;;-1.00;99.90;;;;;;5116990;28;20211;-85
2023/03/11 04:30:40;;;;;;;8.00;2.33;;;-1.00;99.90;;;;;;5099202;28;20179;-85
2023/03/11 04:33:05;;;;;;;7.03;1.60;;;-1.10;99.90;;;;;;5116673;28;20175;-85
2023/03/11 04:35:31;;;;;;;4.43;1.53;;;-1.10;99.90;;;;;;5117136;28;20213;-85
2023/03/11 04:37:57;;;;;;;5.47;2.40;;;-1.20;99.90;;;;;;5099219;28;20651;-85
2023/03/11 04:40:22;;;;;;;4.30;1.87;;;-1.20;99.90;;;;;;5088681;28;20204;-85
2023/03/11 04:42:48;;;;;;;8.10;1.70;;;-1.20;99.90;;;;;;5096926;28;20212;-85
2023/03/11 04:45:14;;;;;;;8.00;2.10;;;-1.20;99.90;;;;;;5096395;28;20239;-85
2023/03/11 04:47:39;;;;;;;5.07;1.83;;;-1.30;99.90;;;;;;5061971;28;20648;-85
2023/03/11 04:50:05;;;;;;;3.03;1.33;;;-1.30;99.90;;;;;;5096365;28;20225;-85
2023/03/11 04:52:31;;;;;;;11.23;2.57;;;-1.30;99.90;;;;;;5085935;28;20190;-85
2023/03/11 04:54:56;;;;;;;14.10;2.60;;;-1.40;99.90;;;;;;5098246;28;20406;-85
2023/03/11 04:57:22;;;;;;;4.30;1.67;;;-1.40;99.90;;;;;;5115983;28;20692;-85
2023/03/11 04:59:47;;;;;;;7.20;1.70;;;-1.40;99.90;;;;;;5116427;28;20175;-85
2023/03/11 05:02:13;;;;;;;4.67;2.77;;;-1.50;99.90;;;;;;5098926;28;20187;-85
2023/03/11 05:04:38;;;;;;;7.40;1.70;;;-1.50;99.90;;;;;;5116772;28;20238;-84
2023/03/11 05:07:04;;;;;;;5.57;2.33;;;-1.50;99.90;;;;;;5099011;28;20261;-84
2023/03/11 05:09:30;;;;;;;9.03;2.10;;;-1.50;99.90;;;;;;5064141;28;20607;-85
2023/03/11 05:11:55;;;;;;;3.87;1.80;;;-1.50;99.90;;;;;;5097904;28;20179;-84
2023/03/11 05:14:21;;;;;;;6.57;2.07;;;-1.50;99.90;;;;;;5116324;28;20194;-84
2023/03/11 05:16:46;;;;;;;4.53;1.83;;;-1.40;99.90;;;;;;5115795;28;20325;-85
2023/03/11 05:19:31;;;;;;;4.60;2.17;;;-1.40;99.90;;;;;;5116118;28;20544;-85
2023/03/11 05:21:57;;;;;;;12.93;2.17;;;-1.40;99.90;;;;;;5116587;28;20649;-85
2023/03/11 05:24:24;;;;;;;7.40;2.15;;;-1.40;99.90;;;;;;5115811;28;20175;-84
2023/03/11 05:26:50;;;;;;;5.10;2.00;;;-1.30;99.90;;;;;;5081818;28;20274;-84
2023/03/11 05:29:16;;;;;;;3.60;1.80;;;-1.30;99.90;;;;;;5098270;28;20604;-85
2023/03/11 05:31:42;;;;;;;8.90;3.77;;;-1.30;99.90;;;;;;5116616;28;20180;-84
2023/03/11 05:34:07;;;;;;;7.90;3.78;;;-1.30;99.90;;;;;;5098109;28;20274;-85
2023/03/11 05:36:33;;;;;;;4.70;3.03;;;-1.30;99.90;;;;;;5116062;28;20274;-85
2023/03/11 05:38:59;;;;;;;11.17;3.30;;;-1.30;99.90;;;;;;5116253;28;20608;-84
2023/03/11 05:41:24;;;;;;;4.23;2.23;;;-1.20;99.90;;;;;;5097782;28;20635;-85
2023/03/11 05:43:50;;;;;;;4.33;2.20;;;-1.10;99.90;;;;;;5116588;28;20190;-84
2023/03/11 05:46:15;;;;;;;7.73;2.73;;;-1.00;99.90;;;;;;5097695;28;20219;-84
2023/03/11 05:48:41;;;;;;;14.37;3.60;;;-1.00;99.90;;;;;;5116987;28;20186;-84
2023/03/11 05:51:09;;;;;;;5.47;2.10;;;-0.90;99.90;;;;;;5117108;28;20183;-84
2023/03/11 05:53:34;;;;;;;3.95;2.53;;;-0.90;99.90;;;;;;5116411;28;20578;-84
2023/03/11 05:56:01;;;;;;;15.03;2.10;;;-0.90;99.90;;;;;;5117373;28;20266;-84
2023/03/11 05:58:27;;;;;;;5.13;2.83;;;-0.90;99.90;;;;;;5116963;28;20178;-85
2023/03/11 06:00:53;;;;;;;6.90;2.30;;;-0.90;99.90;;;;;;5099074;28;20175;-84
2023/03/11 06:03:19;;;;;;;8.27;2.90;;;-0.80;99.90;;;;;;5098789;28;20180;-84
2023/03/11 06:05:49;;;;;;;5.57;2.60;;;-0.80;99.90;;;;;;5117538;28;20485;-84
2023/03/11 06:08:15;;;;;;;7.07;2.25;;;-0.80;99.90;;;;;;5101398;28;20190;-85
2023/03/11 06:10:41;;;;;;;6.33;2.90;;;-0.80;99.90;;;;;;5102654;28;20203;-84
2023/03/11 06:13:08;;;;;;;12.98;5.82;;;-0.70;99.90;;;;;;5103809;28;20485;-83
2023/03/11 06:15:34;;;;;;;9.00;3.08;;;-0.60;99.90;;;;;;5123385;28;20186;-84
2023/03/11 06:17:59;;;;;;;7.00;2.85;;;-0.60;99.90;;;;;;5125232;28;20266;-84
2023/03/11 06:20:25;;;;;;;9.33;3.27;;;-0.60;99.90;;;;;;5105215;28;20224;-84
2023/03/11 06:22:51;;;;;;;9.48;2.70;;;-0.60;99.90;;;;;;5126628;28;20176;-84
2023/03/11 06:25:17;;;;;;;4.75;2.63;;;-0.50;99.90;;;;;;5127721;28;20197;-84
2023/03/11 06:27:47;;;;;;;5.40;3.10;;;-0.50;99.90;;;;;;5128408;28;20200;-84
2023/03/11 06:30:13;;;;;;;5.65;2.65;;;-0.40;99.90;;;;;;5130095;28;20168;-84
2023/03/11 06:32:38;;;;;;;10.80;2.67;;;-0.40;99.90;;;;;;5112423;28;20565;-83
2023/03/11 06:35:04;;;;;;;6.40;2.90;;;-0.40;99.90;;;;;;5111698;28;20424;-83
2023/03/11 06:37:30;;;;;;;5.40;2.70;;;-0.40;99.90;;;;;;5111288;28;20198;-84
2023/03/11 06:39:55;;;;;;;5.43;2.73;;;-0.30;99.90;;;;;;5124625;28;20187;-84
2023/03/11 06:42:25;;;;;;;8.67;2.40;;;-0.30;99.90;;;;;;5111554;28;20512;-84
2023/03/11 06:44:51;;;;;;;4.05;2.40;;;-0.20;99.90;;;;;;5111095;28;20262;-83
2023/03/11 06:47:16;;;;;;;9.30;2.73;;;-0.20;99.90;;;;;;5111694;28;20180;-85
2023/03/11 06:49:43;;;;;;;6.23;2.67;;;-0.10;99.90;;;;;;5111114;28;20181;-84
2023/03/11 06:52:08;;;;;;;7.32;2.90;;;-0.10;99.90;;;;;;5111551;28;20192;-83
2023/03/11 06:54:34;;;;;;;5.67;3.13;;;-0.10;99.90;;;;;;5108899;28;20620;-84
2023/03/11 06:57:00;;;;;;;9.88;2.72;;;0.10;99.90;;;;;;5087753;28;20427;-84
2023/03/11 06:59:27;;;;;;;11.33;3.10;;;0.00;99.90;;;;;;5105954;28;20187;-84
2023/03/11 07:01:53;;;;;;;11.13;3.45;;;0.00;99.90;;;;;;5105568;28;20433;-83
2023/03/11 07:04:19;;;;;;;7.05;3.22;;;0.10;99.90;;;;;;5085234;28;20401;-82
2023/03/11 07:06:45;;;;;;;4.03;2.50;;;0.00;99.90;;;;;;5102421;28;20684;-84
2023/03/11 07:09:10;;;;;;;12.23;3.63;;;0.10;99.90;;;;;;5083238;28;20186;-84
2023/03/11 07:11:36;;;;;;;7.50;2.53;;;0.10;99.90;;;;;;5101782;28;20172;-84
2023/03/11 07:14:01;;;;;;;9.10;2.93;;;0.10;99.90;;;;;;5083558;28;20654;-82
2023/03/11 07:16:29;;;;;;;10.90;3.30;;;0.00;99.90;;;;;;5065512;28;20184;-82
2023/03/11 07:18:59;;;;;;;8.80;2.80;;;0.00;99.90;;;;;;5082198;28;20281;-84
2023/03/11 07:21:26;;;;;;;7.72;3.75;;;0.00;99.90;;;;;;5100979;28;20172;-83
2023/03/11 07:23:54;;;;;;;8.05;3.08;;;-0.10;99.90;;;;;;5102392;28;20172;-84
2023/03/11 07:26:20;;;;;;;10.38;2.97;;;0.00;99.90;;;;;;5083411;28;20212;-85
2023/03/11 07:28:46;;;;;;;9.57;3.42;;;0.00;99.90;;;;;;5102278;28;20183;-83
2023/03/11 07:31:15;;;;;;;16.17;3.80;;;0.00;99.90;;;;;;5084646;28;20271;-84
2023/03/11 07:33:41;;;;;;;9.80;3.28;;;0.00;99.90;;;;;;5102748;28;20175;-83
2023/03/11 07:36:11;;;;;;;6.40;3.37;;;0.10;99.90;;;;;;5106261;28;20212;-84
2023/03/11 07:38:38;;;;;;;3.60;2.97;;;0.10;99.90;;;;;;5107190;28;20547;-84
2023/03/11 07:41:04;;;;;;;10.63;3.15;;;0.10;99.90;;;;;;5086637;28;20659;-84
2023/03/11 07:43:30;;;;;;;9.05;3.63;;;0.20;99.90;;;;;;5105071;28;20226;-82
2023/03/11 07:46:06;;;;;;;8.35;4.30;;;0.20;99.90;;;;;;5105614;28;20199;-84
2023/03/11 07:48:32;;;;;;;10.68;4.00;;;0.30;99.90;;;;;;5105339;28;20265;-84
2023/03/11 07:51:19;;;;;;;6.95;3.50;;;0.40;99.90;;;;;;5085301;28;20198;-84
2023/03/11 07:53:46;;;;;;;10.30;4.47;;;0.50;99.90;;;;;;5084563;28;20172;-84
2023/03/11 07:56:14;;;;;;;7.70;3.70;;;0.50;99.90;;;;;;5082928;28;20186;-84
2023/03/11 07:58:40;;;;;;;12.32;3.55;;;0.60;99.90;;;;;;5081666;28;20184;-84
2023/03/11 08:01:15;;;;;;;9.07;3.90;;;0.60;99.90;;;;;;5098148;28;20171;-83
2023/03/11 08:03:42;;;;;;;7.80;3.25;;;0.80;99.90;;;;;;5112064;27;20193;-84
2023/03/11 08:06:16;;;;;;;11.15;3.63;;;0.80;99.90;;;;;;5141968;27;20240;-84
2023/03/11 08:08:42;;;;;;;7.20;3.53;;;0.80;99.90;;;;;;5124404;27;20627;-83
2023/03/11 08:11:09;;;;;;;10.90;3.78;;;0.90;99.90;;;;;;5145249;27;20631;-84
2023/03/11 08:13:34;;;;;;;12.48;4.18;;;1.10;99.90;;;;;;5126203;27;20236;-84
2023/03/11 08:16:05;;;;;;;8.50;3.33;;;1.20;99.90;;;;;;5143451;27;20671;-84
2023/03/11 08:18:32;;;;;;;7.80;3.22;;;1.30;99.90;;;;;;5142307;27;20530;-84
2023/03/11 08:20:58;;;;;;;18.70;6.43;;;1.50;99.90;;;;;;5140609;27;20210;-82
2023/03/11 08:23:24;;;;;;;6.22;2.88;;;1.60;99.90;;;;;;5122853;27;20228;-85
2023/03/11 08:25:49;;;;;;;11.73;3.17;;;1.70;99.90;;;;;;5124264;27;20253;-84
2023/03/11 08:28:15;;;;;;;7.53;3.20;;;1.80;99.90;;;;;;5144975;27;20405;-84
2023/03/11 08:30:41;;;;;;;5.67;3.80;;;2.00;99.90;;;;;;5124517;27;20417;-84
2023/03/11 08:33:07;;;;;;;6.03;3.33;;;1.90;99.90;;;;;;5123139;27;20436;-82
2023/03/11 08:35:32;;;;;;;5.70;3.60;;;2.00;99.90;;;;;;5144721;27;20204;-84
2023/03/11 08:37:58;;;;;;;8.03;3.20;;;2.10;99.90;;;;;;5128962;27;20196;-82
2023/03/11 08:40:24;;;;;;;7.70;3.37;;;2.10;99.90;;;;;;5136746;27;20172;-85
2023/03/11 08:42:49;;;;;;;4.90;2.80;;;2.10;99.90;;;;;;5127241;28;20258;-82
2023/03/11 08:45:15;;;;;;;7.03;3.30;;;2.10;99.90;;;;;;5110152;28;20226;-82
2023/03/11 08:47:41;;;;;;;6.63;3.07;;;1.90;99.90;;;;;;5130542;28;20216;-83
2023/03/11 08:50:13;;;;;;;7.80;3.80;;;1.90;99.90;;;;;;5127414;28;20203;-85
2023/03/11 08:52:39;;;;;;;5.13;2.45;;;2.00;99.90;;;;;;5123036;28;20398;-85
2023/03/11 08:55:07;;;;;;;10.63;2.70;;;2.00;99.90;;;;;;5127448;28;20187;-84
2023/03/11 08:57:33;;;;;;;11.82;3.03;;;2.00;99.90;;;;;;5110429;28;20684;-85
2023/03/11 08:59:58;;;;;;;6.60;2.60;;;2.00;99.90;;;;;;5128950;28;20196;-85
2023/03/11 09:02:25;;;;;;;7.87;2.97;;;2.10;99.90;;;;;;5123163;28;20180;-85
2023/03/11 09:04:50;;;;;;;9.10;2.58;;;2.20;99.90;;;;;;5129391;28;20228;-84
2023/03/11 09:07:16;;;;;;;8.37;3.43;;;2.20;99.90;;;;;;5066359;28;20194;-81
2023/03/11 09:09:42;;;;;;;4.13;2.60;;;2.40;99.90;;;;;;5095671;28;20219;-81
2023/03/11 09:12:08;;;;;;;13.67;3.07;;;2.60;99.90;;;;;;5099044;28;20182;-81
2023/03/11 09:14:36;;;;;;;5.22;3.22;;;2.90;99.90;;;;;;5098135;28;20515;-81
2023/03/11 09:17:01;;;;;;;10.10;3.50;;;3.10;99.90;;;;;;5117124;28;20950;-81
2023/03/11 09:19:28;;;;;;;7.30;2.60;;;3.30;99.90;;;;;;5117086;28;20184;-81
2023/03/11 09:21:53;;;;;;;7.45;2.70;;;3.60;99.90;;;;;;5116817;28;20184;-80
2023/03/11 09:24:19;;;;;;;9.77;2.10;;;4.00;99.90;;;;;;5115868;28;20171;-77
2023/03/11 09:26:44;;;;;;;5.20;2.13;;;4.40;99.90;;;;;;5081401;28;20218;-77
2023/03/11 09:29:10;;;;;;;4.07;2.60;;;4.50;99.90;;;;;;5116704;28;20266;-77
2023/03/11 09:31:37;;;;;;;6.67;2.80;;;4.80;99.90;;;;;;5116079;28;20207;-77
2023/03/11 09:34:03;;;;;;;5.68;2.05;;;4.40;99.90;;;;;;5116601;28;20221;-77
2023/03/11 09:36:29;;;;;;;8.03;2.57;;;;;;;;;;5116906;28;20190;-78
2023/03/11 09:38:55;;;;;;;3.70;1.88;;;;;;;;;;5116073;28;20749;-77
2023/03/11 09:41:32;;;;;;;10.98;5.32;;;;;;;;;;5098911;28;20212;-77
2023/03/11 09:44:06;;;;;;;4.25;2.05;;;;;;;;;;5079029;28;20580;-78
2023/03/11 09:46:35;;;;;;;5.43;1.88;;;;;;;;;;5095458;28;20550;-78
2023/03/11 09:49:09;;;;;;;3.33;1.60;;;;;;;;;;5096338;28;20519;-78
2023/03/11 09:51:37;;;;;;;3.30;1.52;;;;;;;;;;5095806;28;20179;-78
2023/03/11 09:54:05;;;;;;;4.13;1.60;;;;;;;;;;5095361;28;20175;-78
2023/03/11 09:56:31;;;;;;;3.55;1.40;;;;;;;;;;5095976;28;20176;-78
2023/03/11 09:59:02;;;;;;;2.95;1.70;;;;;;;;;;5096469;28;20196;-78
2023/03/11 10:01:44;;;;;;;3.00;1.17;;;;;;;;;;5095134;28;20171;-83
2023/03/11 10:04:16;;;;;;;2.97;1.42;;;;;;;;;;5095407;28;20232;-77
2023/03/11 10:06:44;;;;;;;1.05;0.75;;;;;;;;;;5095980;28;20540;-77
2023/03/11 10:09:29;;;;;;;2.53;1.00;;;;;;;;;;5085450;28;20179;-78
2023/03/11 10:12:33;;;;;;;2.55;1.10;;;;;;;;;;5095908;28;20233;-77
2023/03/11 10:15:11;;;;;;;3.75;1.02;;;;;;;;;;4993493;28;20195;-78
2023/03/11 10:17:46;;;;;;;1.63;1.35;;;;;;;;;;4994795;28;20181;-78
2023/03/11 10:20:30;;;;;;;5.82;1.60;;;;;;;;;;5056698;28;20539;-78
2023/03/11 10:23:15;;;;;;;3.03;1.35;;;;;;;;;;5094942;28;20702;-78
2023/03/11 10:25:59;;;;;;;1.75;1.10;;;;;;;;;;5094937;28;20298;-77
2023/03/11 10:28:36;;;;;;;3.17;1.30;;;;;;;;;;5095431;28;20164;-80
2023/03/11 10:31:17;;;;;;;9.68;1.50;;;;;;;;;;5077477;28;20746;-77
2023/03/11 10:33:46;;;;;;;3.78;1.55;;;;;;;;;;5077607;28;20186;-77
2023/03/11 10:36:18;;;;;;;3.30;1.40;;;;;;;;;;5095979;28;20648;-77
2023/03/11 10:38:46;;;;;;;3.05;1.20;;;;;;;;;;5076612;28;20208;-77
2023/03/11 10:41:44;;;;;;;4.45;1.60;;;;;;;;;;5112362;28;20596;-79
2023/03/11 10:44:16;;;;;;;7.18;2.28;;;;;;;;;;5059690;28;20198;-78
2023/03/11 10:46:44;;;;;;;3.10;1.40;;;;;;;;;;5115719;28;20212;-78
2023/03/11 10:49:15;;;;;;;7.53;1.33;;;;;;;;;;5115884;28;20241;-77
2023/03/11 10:51:44;;;;;;;2.65;1.35;;;;;;;;;;5114523;28;20168;-77
2023/03/11 10:54:21;;;;;;;4.55;1.63;;;;;;;;;;5115262;28;20169;-77
2023/03/11 10:56:50;;;;;;;6.63;1.20;;;;;;;;;;5115399;28;20192;-77
2023/03/11 10:59:28;;;;;;;2.47;1.08;;;;;;;;;;5115066;28;20198;-78
2023/03/11 11:01:58;;;;;;;4.88;2.20;;;;;;;;;;5114998;28;20171;-77
2023/03/11 11:04:50;;;;;;;3.30;1.13;;;;;;;;;;5114936;28;20262;-79
2023/03/11 11:07:19;;;;;;;3.03;1.30;;;;;;;;;;5110558;28;20202;-77
2023/03/11 11:09:45;;;;;;;4.50;2.03;;;;;;;;;;5105677;28;20194;-80
2023/03/11 11:12:13;;;;;;;3.78;1.30;;;;;;;;;;5096456;28;20187;-78
2023/03/11 11:14:50;;;;;;;4.60;1.35;;;;;;;;;;5094424;28;20178;-78
2023/03/11 11:17:36;;;;;;;3.65;1.27;;;;;;;;;;5098988;28;20706;-77
2023/03/11 11:20:12;;;;;;;6.57;1.40;;;;;;;;;;5119560;28;20175;-79
2023/03/11 11:22:38;;;;;;;4.50;1.48;;;;;;;;;;5117989;28;20179;-78
2023/03/11 11:25:23;;;;;;;2.65;1.30;;;;;;;;;;5119103;28;20206;-78
2023/03/11 11:27:56;;;;;;;5.10;1.27;;;;;;;;;;5119315;28;20220;-78
2023/03/11 11:30:23;;;;;;;1.90;1.20;;;;;;;;;;5117938;28;20180;-78
2023/03/11 11:32:52;;;;;;;1.90;1.00;;;;;;;;;;5118636;28;20179;-78
2023/03/11 11:35:18;;;;;;;3.95;1.10;;;;;;;;;;5100389;28;20190;-77
2023/03/11 11:37:49;;;;;;;3.63;1.02;;;;;;;;;;5117988;28;20203;-78
2023/03/11 11:40:15;;;;;;;4.15;1.20;;;;;;;;;;5108298;28;20172;-78
2023/03/11 11:42:46;;;;;;;2.47;1.40;;;;;;;;;;5098029;28;20172;-78
2023/03/11 11:45:18;;;;;;;4.65;1.33;;;;;;;;;;5079165;28;20380;-79
2023/03/11 11:47:49;;;;;;;2.40;1.27;;;;;;;;;;5098441;28;20242;-77
2023/03/11 11:50:24;;;;;;;3.30;1.10;;;;;;;;;;5080533;28;20178;-77
2023/03/11 11:52:56;;;;;;;3.22;1.15;;;;;;;;;;5096439;28;20168;-77
2023/03/11 11:55:24;;;;;;;3.35;1.20;;;;;;;;;;5098142;28;20175;-78
2023/03/11 11:57:51;;;;;;;1.58;1.10;;;;;;;;;;5097870;28;20549;-82
2023/03/11 12:00:19;;;;;;;2.17;1.25;;;;;;;;;;5097971;28;20267;-77
2023/03/11 12:02:58;;;;;;;3.25;1.20;;;;;;;;;;5097306;28;20173;-77
2023/03/11 12:05:32;;;;;;;2.97;1.70;;;;;;;;;;5096962;28;20319;-78
2023/03/11 12:08:05;;;;;;;4.20;1.42;;;;;;;;;;5097721;28;20610;-77
2023/03/11 12:10:33;;;;;;;6.40;1.40;;;;;;;;;;5100277;28;20176;-81
2023/03/11 12:13:18;;;;;;;3.13;1.30;;;;;;;;;;5100669;28;20584;-77
2023/03/11 12:15:49;;;;;;;4.35;1.33;;;;;;;;;;5097796;28;20180;-77
2023/03/11 12:18:19;;;;;;;4.10;1.45;;;;;;;;;;5079857;28;20230;-77
2023/03/11 12:20:48;;;;;;;3.90;1.50;;;;;;;;;;5096245;28;20265;-78
2023/03/11 12:23:38;;;;;;;3.75;1.65;;;;;;;;;;5096427;28;20178;-78
2023/03/11 12:26:10;;;;;;;3.42;1.20;;;;;;;;;;5097356;28;20192;-77
2023/03/11 12:28:48;;;;;;;2.90;1.50;;;;;;;;;;5096018;28;20548;-78
2023/03/11 12:31:15;;;;;;;2.50;1.05;;;;;;;;;;5097075;28;20251;-77
2023/03/11 12:33:52;;;;;;;3.58;1.08;;;;;;;;;;5097035;28;20172;-77
2023/03/11 12:36:23;;;;;;;2.45;1.20;;;;;;;;;;5095759;28;20187;-76
2023/03/11 12:38:49;;;;;;;4.00;2.20;;;;;;;;;;5096647;28;20168;-78
2023/03/11 12:41:15;;;;;;;4.68;2.53;;;;;;;;;;5113503;28;20167;-77
2023/03/11 12:43:41;;;;;;;4.47;1.73;;;;;;;;;;5098465;28;20167;-77
2023/03/11 12:46:08;;;;;;;2.88;1.52;;;;;;;;;;5118102;28;20474;-77
2023/03/11 12:48:34;;;;;;;8.85;1.77;;;;;;;;;;5117845;28;20171;-77
2023/03/11 12:51:00;;;;;;;5.25;1.45;;;;;;;;;;5097269;28;20207;-80
2023/03/11 12:53:45;;;;;;;13.00;1.40;;;;;;;;;;5117881;28;20191;-77
2023/03/11 12:56:11;;;;;;;2.40;1.13;;;;;;;;;;5117774;28;20175;-77
2023/03/11 12:58:47;;;;;;;4.65;1.70;;;;;;;;;;5116763;28;20189;-77
2023/03/11 13:01:25;;;;;;;5.40;1.52;;;;;;;;;;5118058;28;20175;-77
2023/03/11 13:03:58;;;;;;;5.05;1.88;;;;;;;;;;5099067;28;20179;-77
2023/03/11 13:06:30;;;;;;;2.75;1.55;;;;;;;;;;5116927;28;20198;-78
2023/03/11 13:08:57;;;;;;;3.80;1.60;;;;;;;;;;5098543;28;20213;-77
2023/03/11 13:11:32;;;;;;;6.43;1.55;;;;;;;;;;5108271;28;20171;-78
2023/03/11 13:14:15;;;;;;;4.95;1.30;;;;;;;;;;5109894;28;20626;-78
2023/03/11 13:16:41;;;;;;;7.68;1.70;;;;;;;;;;5097347;28;20186;-77
2023/03/11 13:19:26;;;;;;;6.85;2.03;;;;;;;;;;5116757;28;20639;-77
2023/03/11 13:21:52;;;;;;;3.17;1.60;;;;;;;;;;5116906;28;20170;-77
2023/03/11 13:24:20;;;;;;;1.77;1.15;;;;;;;;;;5117240;28;20240;-76
2023/03/11 13:26:52;;;;;;;3.15;2.10;;;;;;;;;;5115778;28;20202;-78